Flight Track Log - Related Links

Times and Time Zones

All times are in EDT time to prevent confusion due to time zone crossing. See the LXJ541 flight status page for this flight to view local times or setup timezone preferences in your user account.

Time Position Orientation Groundspeed Altitude Reporting Facility
EDT Latitude Longitude Course Direction KTS MPH feet Rate Location/Type
Mon 10:33:57 AM 36.8992 -76.1997 37° Northeast 137 158 1,200  Level Washington Center
Mon 10:35:04 AM 36.9475 -76.1533 37° Northeast 263 303 4,400 3,656 Climbing Washington Center
Mon 10:36:05 AM 36.9994 -76.2056 321° Northwest 290 334 9,000 2,732 Climbing Washington Center
Mon 10:37:07 AM 36.9989 -76.3097 270° West 297 342 10,000 1,918 Climbing Washington Center
Mon 10:38:07 AM 37.0044 -76.4189 274° West 311 358 12,900 2,800 Climbing Washington Center
Mon 10:39:07 AM 37.0119 -76.5386 275° West 330 380 15,600 2,200 Climbing Washington Center
Mon 10:40:07 AM 37.0214 -76.6583 276° West 347 399 17,300 1,300 Climbing Washington Center
Mon 10:41:07 AM 37.0286 -76.7731 275° West 347 399 18,200 350 Climbing Washington Center
Mon 10:42:07 AM 37.0358 -76.8875 275° West 347 399 18,000 -100 Descending Washington Center
Mon 10:43:07 AM 37.0447 -77.0075 275° West 347 399 18,000 650 Level Washington Center
Mon 10:44:07 AM 37.0600 -77.1300 279° West 353 406 19,300 2,000 Climbing Washington Center
Mon 10:45:07 AM 37.0814 -77.2528 282° West 353 406 22,000 2,800 Climbing Washington Center
Mon 10:46:07 AM 37.1028 -77.3628 284° West 353 406 24,900 2,500 Climbing Washington Center
Mon 10:47:07 AM 37.1697 -77.4736 307° West 366 421 27,000 1,950 Climbing Washington Center
Mon 10:48:07 AM 37.2683 -77.5700 322° Northwest 399 459 28,800 1,600 Climbing Washington Center
Mon 10:49:07 AM 37.3731 -77.6722 322° Northwest 445 512 30,200 1,700 Climbing Washington Center
Mon 10:50:07 AM 37.4775 -77.7769 322° Northwest 465 535 32,200 1,700 Climbing Washington Center
Mon 10:51:07 AM 37.5992 -77.8514 334° Northwest 478 550 33,600 1,450 Climbing Washington Center
Mon 10:52:07 AM 37.7444 -77.8897 348° North 499 574 35,100 2,850 Climbing Washington Center
Mon 10:53:07 AM 37.8711 -77.9250 348° North 490 564 39,300 3,000 Climbing Washington Center
Mon 10:54:07 AM 37.9956 -77.9606 347° North 470 541 41,100 1,600 Climbing Washington Center
Mon 10:55:07 AM 38.1136 -77.9986 346° North 446 513 42,500 950 Climbing Washington Center
Mon 10:56:07 AM 38.2361 -78.0344 347° North 446 513 43,000 250 Climbing Washington Center
Mon 10:57:07 AM 38.3647 -78.0678 349° North 456 525 43,000  Level Washington Center
Mon 10:58:07 AM 38.4889 -78.1036 347° North 456 525 43,000  Level Washington Center
Mon 10:59:07 AM 38.6258 -78.1428 347° North 456 525 43,000  Level Washington Center
Mon 11:00:07 AM 38.7522 -78.1792 347° North 456 525 43,000  Level Washington Center
Mon 11:01:07 AM 38.8808 -78.2103 349° North 456 525 43,000  Level Washington Center
Mon 11:02:07 AM 39.0139 -78.2258 355° North 466 536 43,000  Level Washington Center
Mon 11:03:07 AM 39.1428 -78.2383 356° North 466 536 43,000  Level Washington Center
Mon 11:05:01 AM 39.3806 -78.2600 356° North 474 545 43,000  Level Cleveland Center
Mon 11:06:00 AM 39.5122 -78.2717 356° North 474 545 43,000  Level Cleveland Center
Mon 11:07:01 AM 39.6417 -78.2861 355° North 474 545 43,000  Level Cleveland Center
Mon 11:08:01 AM 39.7711 -78.3008 355° North 468 539 43,000  Level Cleveland Center
Mon 11:09:00 AM 39.8986 -78.3153 355° North 460 529 43,000  Level Cleveland Center
Mon 11:10:01 AM 40.0261 -78.3300 355° North 460 529 43,000 -595 Level Cleveland Center
Mon 11:11:01 AM 40.1578 -78.3419 356° North 465 535 41,800 -1,350 Descending Cleveland Center
Mon 11:12:01 AM 40.2808 -78.3542 356° North 477 549 40,300 -1,513 Descending Cleveland Center
Mon 11:13:00 AM 40.4461 -78.3733 355° North 490 564 38,800 -1,563 Descending Cleveland Center
Mon 11:14:00 AM 40.5778 -78.3881 355° North 490 564 37,200 -1,388 Descending Cleveland Center
Mon 11:15:01 AM 40.7133 -78.4025 355° North 480 552 36,000 -595 Descending Cleveland Center
Mon 11:16:01 AM 40.8408 -78.4147 356° North 480 552 36,000  Level Cleveland Center
Mon 11:17:01 AM 40.9767 -78.4297 355° North 480 552 36,000  Level Cleveland Center
Mon 11:18:00 AM 41.1083 -78.4419 356° North 480 552 36,000  Level Cleveland Center
Mon 11:19:01 AM 41.2397 -78.4569 355° North 480 552 36,000  Level Cleveland Center
Mon 11:20:00 AM 41.3714 -78.4719 355° North 480 552 36,000  Level Cleveland Center
Mon 11:21:00 AM 41.4925 -78.4847 355° North 480 552 36,000 -397 Level Cleveland Center
Mon 11:22:01 AM 41.6242 -78.4997 355° North 480 552 35,200 -992 Descending Cleveland Center
Mon 11:23:01 AM 41.7536 -78.5122 356° North 480 552 34,000 -756 Descending Cleveland Center
Mon 11:24:00 AM 41.8811 -78.5278 355° North 468 539 33,700 -800 Descending Cleveland Center
Mon 11:25:01 AM 42.0086 -78.5431 355° North 462 532 32,400 -843 Descending Cleveland Center
Mon 11:26:01 AM 42.1319 -78.5561 356° North 456 525 32,000 -200 Descending Cleveland Center
Mon 11:27:01 AM 42.2531 -78.5719 354° North 451 519 32,000  Level Cleveland Center
Mon 11:28:01 AM 42.3783 -78.5847 356° North 446 513 32,000 -403 Level Cleveland Center
Mon 11:29:00 AM 42.4989 -78.5697 North 441 507 31,200 -1,150 Descending Cleveland Center
Mon 11:30:01 AM 42.6169 -78.5236 16° North 436 502 29,700 -1,488 Descending Cleveland Center
Mon 11:31:01 AM 42.7328 -78.4803 15° North 436 502 28,200 -1,361 Descending Cleveland Center
Mon 11:32:00 AM 42.8383 -78.5503 334° Northwest 396 456 27,000 -1,200 Descending Cleveland Center
Mon 11:33:01 AM 42.9422 -78.6489 325° Northwest 396 456 25,800 -1,488 Descending Cleveland Center
Mon 11:34:01 AM 43.0006 -78.7750 302° West 401 461 24,000 -1,844 Descending Cleveland Center
Mon 11:36:26 AM 43.1500 -79.0667 305° West 390 449 19,500 -1,815 Descending Toronto Center
Mon 11:37:26 AM 43.2167 -79.1833 308° West 380 437 17,800 -1,900 Descending Toronto Center
Mon 11:38:26 AM 43.2667 -79.2833 304° West 360 414 15,700 -2,100 Descending Toronto Center
Mon 11:39:26 AM 43.3333 -79.3500 324° Northwest 310 357 13,600 -2,000 Descending Toronto Center
Mon 11:40:26 AM 43.4167 -79.3833 344° North 300 345 11,700 -1,750 Descending Toronto Center
Mon 11:41:26 AM 43.5000 -79.4333 336° Northwest 300 345 10,100 -1,500 Descending Toronto Center
Mon 11:42:26 AM 43.5667 -79.4500 350° North 280 322 8,700 -2,050 Descending Toronto Center
Mon 11:43:26 AM 43.5833 -79.5333 285° West 260 299 6,000 -1,850 Descending Toronto Center
Mon 11:44:26 AM 43.5500 -79.5833 227° Southwest 220 253 5,000 -1,300 Descending Toronto Center
Mon 11:45:26 AM 43.5000 -79.6500 224° Southwest 220 253 3,400 -1,000 Descending Toronto Center
Mon 11:46:26 AM 43.5000 -79.7167 270° West 220 253 3,000 -200 Descending Toronto Center
Mon 11:47:26 AM 43.5500 -79.7167 360° North 200 230 3,000 -250 Level Toronto Center
Mon 11:48:26 AM 43.6000 -79.6833 26° Northeast 180 207 2,500 -800 Descending Toronto Center
Mon 11:49:26 AM 43.6333 -79.6333 47° Northeast 170 196 1,400 -950 Descending Toronto Center
Mon 11:50:26 AM 43.6500 -79.6167 36° Northeast 120 138 600 -800 Descending Toronto Center

Login

Don't have an account? Register now (free) for customized features, flight alerts, and more!